Wasilla, Alaska
Current Conditions -  °F | °C
As of 2:16 AM on Sunday 23 Nov 2014 (Local Time) from PAWS Reporting Station
Overcast Overcast  
Wind Chill: 28°   Ceiling: 7000
Heat Index: 28°   Visibility: 10mi
Dew Point: 12°   Wind: 3mph
Humidity: 51%   Direction: 360°N
Pressure: 29.29"   Gusts: NA
Location:  61.58°N, 149.45°W
Report Text: PAWS 231116Z AUTO 36003KT 10SM FEW060 BKN070 OVC085 M02/M11 A2929 RMK AO1
Loading
Personal Weather Stations






























Interactive Weather Map New forecast layout! Learn more

10-Day Weather Forecast

Advertisements
Track Severe Weather on mobile